Terminal Aerodrome Forecast
Issued by NWS

Home | Current Version | Previous Version | Text Only | Print | Product List | Glossary On
Versions: 1 2 3 4 5 6 7 8 9 10 11 12 13 14 15 16 17 18 19 20 21 22 23 24 25 26 27 28 29 30 31 32 33 34 35 36 37 38 39 40 41 42 43 44 45 46 47 48 49 50
000
FTUS43 KLOT 232300
TAFGYY
TAF
KGYY 232339Z 2400/2424 13012KT 3SM RA BR OVC007
     FM240200 18010KT 3SM RA BR OVC004
     FM240600 20008KT 1 1/2SM -RA BR OVC004
     FM241500 27015G22KT 3SM -RA BR SCT007 OVC015
     FM241900 24024G35KT 4SM -SN SCT007 OVC012=

USA.gov is the U.S. government's official web portal to all federal, state and local government web resources and services.